Latest Weather Observations for Point Wilson

IDV60901

Issued at 6:41 am EST Tuesday 27 September 2016 (issued every 10 minutes, with the page automatically refreshed every 10 minutes)

About weather observations | Map of Melbourne area stations | Latest observations for Melbourne area | Other Formats
Station Details ID: 087166 Name: POINT WILSON Lat: -38.10 Lon: 144.54 Height: 18.0 m
Data from the previous 72 hours. | See also: Recent months for locations in Victoria
Date/Time
EST
Temp
°C
App
Temp
°C
Dew
Point
°C
Rel
Hum
%
Delta-T
°C
Wind Press
QNH
hPa
Press
MSL
hPa
Rain since
9am
mm
Dir  Spd
km/h
Gust
km/h
Spd
kts
Gust
kts
27/06:30am - - - - - WNW 19 20 10 11 - - -
27/06:00am - - - - - WNW 19 22 10 12 - - -
27/05:30am - - - - - WNW 20 26 11 14 - - -
27/05:00am - - - - - WNW 20 26 11 14 - - -
27/04:30am - - - - - WNW 28 32 15 17 - - -
27/04:00am - - - - - WNW 32 37 17 20 - - -
27/03:30am - - - - - WNW 28 33 15 18 - - -
27/03:00am - - - - - WNW 26 33 14 18 - - -
27/02:30am - - - - - WNW 26 32 14 17 - - -
27/02:00am - - - - - WNW 26 32 14 17 - - -
27/01:30am - - - - - WNW 28 33 15 18 - - -
27/01:00am - - - - - WNW 20 24 11 13 - - -
27/12:30am - - - - - NW 19 22 10 12 - - -
27/12:00am - - - - - NW 24 28 13 15 - - -
 
Date/Time
EST
Temp
°C
App
Temp
°C
Dew
Point
°C
Rel
Hum
%
Delta-T
°C
Wind Press
QNH
hPa
Press
MSL
hPa
Rain since
9am
mm
Dir  Spd
km/h
Gust
km/h
Spd
kts
Gust
kts
26/11:30pm - - - - - WNW 17 20 9 11 - - -
26/11:00pm - - - - - NW 15 20 8 11 - - -
26/10:30pm - - - - - NNW 19 20 10 11 - - -
26/10:00pm - - - - - NW 17 20 9 11 - - -
26/09:30pm - - - - - WNW 22 30 12 16 - - -
26/09:00pm - - - - - W 28 39 15 21 - - -
26/08:30pm - - - - - W 33 43 18 23 - - -
26/08:00pm - - - - - WSW 37 46 20 25 - - -
26/07:53pm - - - - - WSW 41 52 22 28 - - -
26/07:31pm - - - - - W 35 61 19 33 - - -
26/07:30pm - - - - - W 28 35 15 19 - - -
26/07:00pm - - - - - N 19 22 10 12 - - -
26/06:30pm - - - - - N 26 30 14 16 - - -
26/06:00pm - - - - - NNW 48 57 26 31 - - -
26/05:38pm - - - - - NW 41 54 22 29 - - -
26/05:30pm - - - - - N 19 24 10 13 - - -
26/05:00pm - - - - - NE 19 24 10 13 - - -
26/04:30pm - - - - - ENE 19 20 10 11 - - -
26/04:00pm - - - - - NNE 22 28 12 15 - - -
26/03:30pm - - - - - NE 19 20 10 11 - - -
26/03:00pm - - - - - NNE 13 19 7 10 - - -
26/02:30pm - - - - - N 17 20 9 11 - - -
26/02:00pm - - - - - ENE 13 17 7 9 - - -
26/01:45pm - - - - - WSW 30 37 16 20 - - -
26/01:30pm - - - - - ENE 15 17 8 9 - - -
26/01:00pm - - - - - E 15 19 8 10 - - -
26/12:30pm - - - - - E 11 13 6 7 - - -
26/12:00pm - - - - - E 13 17 7 9 - - -
26/11:30am - - - - - SE 4 13 2 7 - - -
26/11:00am - - - - - SSE 2 7 1 4 - - -
26/10:30am - - - - - WNW 2 11 1 6 - - -
26/10:00am - - - - - CALM 0 6 0 3 - - -
26/09:30am - - - - - W 11 15 6 8 - - -
26/09:00am - - - - - NW 13 17 7 9 - - -
26/08:30am - - - - - NNW 11 13 6 7 - - -
26/08:00am - - - - - NW 9 11 5 6 - - -
26/07:30am - - - - - N 9 11 5 6 - - -
26/07:00am - - - - - NNW 7 9 4 5 - - -
26/06:30am - - - - - NW 15 17 8 9 - - -
26/06:00am - - - - - NW 13 17 7 9 - - -
26/05:30am - - - - - NNW 19 22 10 12 - - -
26/05:00am - - - - - NNW 19 20 10 11 - - -
26/04:30am - - - - - N 19 20 10 11 - - -
26/04:00am - - - - - N 19 20 10 11 - - -
26/03:30am - - - - - NW 13 17 7 9 - - -
26/03:00am - - - - - NNW 11 13 6 7 - - -
26/02:30am - - - - - NNW 9 11 5 6 - - -
26/02:00am - - - - - NW 11 13 6 7 - - -
26/01:30am - - - - - NW 11 13 6 7 - - -
26/01:00am - - - - - NNW 15 17 8 9 - - -
26/12:30am - - - - - N 15 17 8 9 - - -
26/12:00am - - - - - N 19 20 10 11 - - -
 
Date/Time
EST
Temp
°C
App
Temp
°C
Dew
Point
°C
Rel
Hum
%
Delta-T
°C
Wind Press
QNH
hPa
Press
MSL
hPa
Rain since
9am
mm
Dir  Spd
km/h
Gust
km/h
Spd
kts
Gust
kts
25/11:30pm - - - - - N 19 20 10 11 - - -
25/11:00pm - - - - - N 15 15 8 8 - - -
25/10:30pm - - - - - NNE 13 17 7 9 - - -
25/10:00pm - - - - - NE 9 11 5 6 - - -
25/09:30pm - - - - - ESE 7 9 4 5 - - -
25/09:00pm - - - - - SE 9 11 5 6 - - -
25/08:30pm - - - - - S 11 13 6 7 - - -
25/08:00pm - - - - - S 9 13 5 7 - - -
25/07:30pm - - - - - S 11 15 6 8 - - -
25/07:00pm - - - - - SSW 11 13 6 7 - - -
25/06:30pm - - - - - S 15 17 8 9 - - -
25/06:00pm - - - - - S 17 19 9 10 - - -
25/05:30pm - - - - - S 15 19 8 10 - - -
25/05:00pm - - - - - S 19 24 10 13 - - -
25/04:30pm - - - - - SE 13 15 7 8 - - -
25/04:00pm - - - - - S 15 17 8 9 - - -
25/03:30pm - - - - - S 20 26 11 14 - - -
25/03:00pm - - - - - SSE 15 17 8 9 - - -
25/02:30pm - - - - - S 17 20 9 11 - - -
25/02:00pm - - - - - S 17 24 9 13 - - -
25/01:30pm - - - - - WSW 24 30 13 16 - - -
25/01:00pm - - - - - WSW 35 43 19 23 - - -
25/12:30pm - - - - - WSW 24 32 13 17 - - -
25/12:00pm - - - - - W 30 39 16 21 - - -
25/11:30am - - - - - W 26 33 14 18 - - -
25/11:00am - - - - - WSW 28 35 15 19 - - -
25/10:30am - - - - - WSW 30 37 16 20 - - -
25/10:00am - - - - - W 28 35 15 19 - - -
25/09:30am - - - - - WSW 30 35 16 19 - - -
25/09:00am - - - - - W 28 35 15 19 - - -
25/08:30am - - - - - W 30 39 16 21 - - -
25/08:00am - - - - - W 30 37 16 20 - - -
25/07:30am - - - - - W 37 43 20 23 - - -
25/07:00am - - - - - W 37 44 20 24 - - -
25/06:30am - - - - - W 37 46 20 25 - - -
25/06:00am - - - - - W 35 43 19 23 - - -
25/05:30am - - - - - W 37 43 20 23 - - -
25/05:00am - - - - - W 30 37 16 20 - - -
25/04:30am - - - - - W 32 37 17 20 - - -
25/04:00am - - - - - W 32 41 17 22 - - -
25/03:30am - - - - - WSW 28 37 15 20 - - -
25/03:00am - - - - - W 24 28 13 15 - - -
25/02:30am - - - - - WSW 22 28 12 15 - - -
25/02:00am - - - - - WSW 26 32 14 17 - - -
25/01:30am - - - - - WSW 24 32 13 17 - - -
25/01:00am - - - - - WSW 26 30 14 16 - - -
25/12:30am - - - - - WSW 26 35 14 19 - - -
25/12:00am - - - - - NW 24 28 13 15 - - -
 
Date/Time
EST
Temp
°C
App
Temp
°C
Dew
Point
°C
Rel
Hum
%
Delta-T
°C
Wind Press
QNH
hPa
Press
MSL
hPa
Rain since
9am
mm
Dir  Spd
km/h
Gust
km/h
Spd
kts
Gust
kts
24/11:30pm - - - - - N 19 22 10 12 - - -
24/11:00pm - - - - - NNE 19 20 10 11 - - -
24/10:30pm - - - - - N 17 20 9 11 - - -
24/10:00pm - - - - - N 13 15 7 8 - - -
24/09:30pm - - - - - NNW 17 20 9 11 - - -
24/09:00pm - - - - - N 19 22 10 12 - - -
24/08:30pm - - - - - N 19 20 10 11 - - -
24/08:00pm - - - - - N 24 28 13 15 - - -
24/07:30pm - - - - - N 20 24 11 13 - - -
24/07:00pm - - - - - N 20 22 11 12 - - -
24/06:30pm - - - - - N 19 22 10 12 - - -
24/06:00pm - - - - - N 22 30 12 16 - - -
24/05:30pm - - - - - N 17 26 9 14 - - -
24/05:00pm - - - - - N 19 20 10 11 - - -
24/04:30pm - - - - - N 22 26 12 14 - - -
24/04:00pm - - - - - NNW 19 22 10 12 - - -
24/03:30pm - - - - - N 28 39 15 21 - - -
24/03:00pm - - - - - N 33 39 18 21 - - -
24/02:30pm - - - - - N 28 33 15 18 - - -
24/02:00pm - - - - - N 33 43 18 23 - - -
24/01:30pm - - - - - N 35 44 19 24 - - -
24/01:00pm - - - - - N 32 39 17 21 - - -
24/12:30pm - - - - - N 30 39 16 21 - - -
24/12:00pm - - - - - N 30 35 16 19 - - -
24/11:30am - - - - - N 30 37 16 20 - - -
24/11:00am - - - - - N 30 37 16 20 - - -
24/10:30am - - - - - N 28 33 15 18 - - -
24/10:00am - - - - - N 28 33 15 18 - - -
24/09:30am - - - - - NNE 24 33 13 18 - - -
24/09:00am - - - - - N 32 35 17 19 - - -
24/08:30am - - - - - N 26 30 14 16 - - -
24/08:00am - - - - - N 24 28 13 15 - - -
24/07:30am - - - - - NNE 22 24 12 13 - - -
24/07:00am - - - - - NNE 22 24 12 13 - - -

Latest Capital City Observations: Canberra | Sydney | Melbourne | Brisbane | Adelaide | Perth | Hobart | Darwin

Other Formats:

Comma delimited format used in spreadsheet applications
http://www.bom.gov.au/fwo/IDV60901/IDV60901.94847.axf

JavaScript Object Notation format (JSON) in row-major order
http://www.bom.gov.au/fwo/IDV60901/IDV60901.94847.json